sensor_id;sensor_type;location;lat;lon;timestamp;pressure;altitude;pressure_sealevel;temperature;humidity
68634;BME280;55625;47.072;22.192;2023-02-23T00:01:57;99866.31;;;0.52;98.44
68634;BME280;55625;47.072;22.192;2023-02-23T00:04:30;99868.69;;;0.50;98.42
68634;BME280;55625;47.072;22.192;2023-02-23T00:06:57;99867.84;;;0.46;98.35
68634;BME280;55625;47.072;22.192;2023-02-23T00:09:23;99868.22;;;0.44;98.27
68634;BME280;55625;47.072;22.192;2023-02-23T00:11:51;99864.97;;;0.39;99.12
68634;BME280;55625;47.072;22.192;2023-02-23T00:14:17;99858.50;;;0.31;98.74
68634;BME280;55625;47.072;22.192;2023-02-23T00:16:43;99864.03;;;0.27;99.39
68634;BME280;55625;47.072;22.192;2023-02-23T00:19:11;99863.22;;;0.27;99.90
68634;BME280;55625;47.072;22.192;2023-02-23T00:21:40;99862.38;;;0.23;99.43
68634;BME280;55625;47.072;22.192;2023-02-23T00:24:12;99862.34;;;0.19;99.85
68634;BME280;55625;47.072;22.192;2023-02-23T00:26:40;99859.94;;;0.18;99.79
68634;BME280;55625;47.072;22.192;2023-02-23T00:29:14;99859.13;;;0.17;100.00
68634;BME280;55625;47.072;22.192;2023-02-23T00:31:48;99860.34;;;0.20;100.00
68634;BME280;55625;47.072;22.192;2023-02-23T00:34:17;99863.16;;;0.20;100.00
68634;BME280;55625;47.072;22.192;2023-02-23T00:36:52;99869.59;;;0.27;100.00
68634;BME280;55625;47.072;22.192;2023-02-23T00:39:20;99857.75;;;0.34;100.00
68634;BME280;55625;47.072;22.192;2023-02-23T00:41:48;99858.19;;;0.40;100.00
68634;BME280;55625;47.072;22.192;2023-02-23T00:44:15;99852.28;;;0.45;100.00
68634;BME280;55625;47.072;22.192;2023-02-23T00:46:42;99858.66;;;0.45;100.00
68634;BME280;55625;47.072;22.192;2023-02-23T00:49:11;99863.84;;;0.47;100.00
68634;BME280;55625;47.072;22.192;2023-02-23T00:51:38;99857.94;;;0.52;100.00
68634;BME280;55625;47.072;22.192;2023-02-23T00:54:05;99854.41;;;0.58;100.00
68634;BME280;55625;47.072;22.192;2023-02-23T00:56:31;99848.44;;;0.60;100.00
68634;BME280;55625;47.072;22.192;2023-02-23T00:58:56;99860.47;;;0.64;100.00
68634;BME280;55625;47.072;22.192;2023-02-23T01:01:23;99852.50;;;0.66;100.00
68634;BME280;55625;47.072;22.192;2023-02-23T01:03:50;99848.53;;;0.67;100.00
68634;BME280;55625;47.072;22.192;2023-02-23T01:06:18;99848.53;;;0.67;100.00
68634;BME280;55625;47.072;22.192;2023-02-23T01:08:47;99858.09;;;0.66;100.00
68634;BME280;55625;47.072;22.192;2023-02-23T01:11:24;99854.06;;;0.64;100.00
68634;BME280;55625;47.072;22.192;2023-02-23T01:13:55;99850.91;;;0.65;100.00
68634;BME280;55625;47.072;22.192;2023-02-23T01:16:26;99854.91;;;0.68;100.00
68634;BME280;55625;47.072;22.192;2023-02-23T01:18:54;99856.53;;;0.72;100.00
68634;BME280;55625;47.072;22.192;2023-02-23T01:21:33;99854.19;;;0.74;100.00
68634;BME280;55625;47.072;22.192;2023-02-23T01:23:59;99857.00;;;0.78;100.00
68634;BME280;55625;47.072;22.192;2023-02-23T01:26:32;99853.41;;;0.77;100.00
68634;BME280;55625;47.072;22.192;2023-02-23T01:29:03;99847.00;;;0.77;100.00
68634;BME280;55625;47.072;22.192;2023-02-23T01:31:30;99851.00;;;0.76;100.00
68634;BME280;55625;47.072;22.192;2023-02-23T01:33:59;99849.00;;;0.76;100.00
68634;BME280;55625;47.072;22.192;2023-02-23T01:36:27;99845.03;;;0.77;100.00
68634;BME280;55625;47.072;22.192;2023-02-23T01:38:54;99841.00;;;0.75;100.00
68634;BME280;55625;47.072;22.192;2023-02-23T01:41:23;99839.78;;;0.72;100.00
68634;BME280;55625;47.072;22.192;2023-02-23T01:46:35;99833.34;;;0.65;100.00
68634;BME280;55625;47.072;22.192;2023-02-23T01:49:04;99836.84;;;0.58;100.00
68634;BME280;55625;47.072;22.192;2023-02-23T01:51:35;99841.59;;;0.54;100.00
68634;BME280;55625;47.072;22.192;2023-02-23T01:54:08;99839.56;;;0.51;100.00
68634;BME280;55625;47.072;22.192;2023-02-23T01:56:44;99838.72;;;0.47;100.00
68634;BME280;55625;47.072;22.192;2023-02-23T01:59:14;99836.75;;;0.47;100.00
68634;BME280;55625;47.072;22.192;2023-02-23T02:01:42;99832.31;;;0.43;100.00
68634;BME280;55625;47.072;22.192;2023-02-23T02:04:10;99831.91;;;0.41;100.00
68634;BME280;55625;47.072;22.192;2023-02-23T02:06:43;99838.66;;;0.40;100.00
68634;BME280;55625;47.072;22.192;2023-02-23T02:09:14;99830.63;;;0.35;100.00
68634;BME280;55625;47.072;22.192;2023-02-23T02:11:44;99840.19;;;0.34;100.00
68634;BME280;55625;47.072;22.192;2023-02-23T02:14:20;99841.81;;;0.35;100.00
68634;BME280;55625;47.072;22.192;2023-02-23T02:37:37;99826.25;;;0.34;100.00
68634;BME280;55625;47.072;22.192;2023-02-23T02:41:02;99819.47;;;0.35;100.00
68634;BME280;55625;47.072;22.192;2023-02-23T02:44:02;99827.47;;;0.36;100.00
68634;BME280;55625;47.072;22.192;2023-02-23T02:46:39;99827.50;;;0.40;100.00
68634;BME280;55625;47.072;22.192;2023-02-23T02:54:43;99818.00;;;0.48;100.00
68634;BME280;55625;47.072;22.192;2023-02-23T02:57:13;99820.47;;;0.56;100.00
68634;BME280;55625;47.072;22.192;2023-02-23T02:59:48;99826.97;;;0.64;100.00
68634;BME280;55625;47.072;22.192;2023-02-23T03:02:39;99822.09;;;0.61;100.00
68634;BME280;55625;47.072;22.192;2023-02-23T03:05:48;99830.06;;;0.59;100.00
68634;BME280;55625;47.072;22.192;2023-02-23T03:09:10;99827.69;;;0.61;100.00
68634;BME280;55625;47.072;22.192;2023-02-23T03:15:28;99836.53;;;0.63;100.00
68634;BME280;55625;47.072;22.192;2023-02-23T03:18:44;99832.97;;;0.66;100.00
68634;BME280;55625;47.072;22.192;2023-02-23T03:28:12;99832.94;;;0.63;99.84
68634;BME280;55625;47.072;22.192;2023-02-23T03:31:36;99834.84;;;0.58;100.00
68634;BME280;55625;47.072;22.192;2023-02-23T03:34:40;99833.59;;;0.52;100.00
68634;BME280;55625;47.072;22.192;2023-02-23T03:37:37;99830.78;;;0.49;100.00
68634;BME280;55625;47.072;22.192;2023-02-23T03:40:27;99834.34;;;0.46;100.00
68634;BME280;55625;47.072;22.192;2023-02-23T03:43:22;99837.94;;;0.46;100.00
68634;BME280;55625;47.072;22.192;2023-02-23T03:46:11;99833.56;;;0.49;100.00
68634;BME280;55625;47.072;22.192;2023-02-23T03:49:00;99835.16;;;0.50;100.00
68634;BME280;55625;47.072;22.192;2023-02-23T03:51:51;99832.78;;;0.52;100.00
68634;BME280;55625;47.072;22.192;2023-02-23T03:54:45;99837.63;;;0.55;100.00
68634;BME280;55625;47.072;22.192;2023-02-23T03:57:34;99842.81;;;0.56;100.00
68634;BME280;55625;47.072;22.192;2023-02-23T04:00:33;99837.25;;;0.60;100.00
68634;BME280;55625;47.072;22.192;2023-02-23T04:03:21;99840.50;;;0.62;100.00
68634;BME280;55625;47.072;22.192;2023-02-23T04:06:10;99845.31;;;0.65;100.00
68634;BME280;55625;47.072;22.192;2023-02-23T04:09:00;99850.13;;;0.68;100.00
68634;BME280;55625;47.072;22.192;2023-02-23T04:15:00;99845.03;;;0.77;100.00
68634;BME280;55625;47.072;22.192;2023-02-23T04:17:29;99839.88;;;0.83;100.00
68634;BME280;55625;47.072;22.192;2023-02-23T04:19:56;99843.91;;;0.85;100.00
68634;BME280;55625;47.072;22.192;2023-02-23T04:22:23;99843.13;;;0.88;100.00
68634;BME280;55625;47.072;22.192;2023-02-23T04:24:49;99839.13;;;0.89;100.00
68634;BME280;55625;47.072;22.192;2023-02-23T04:27:16;99839.94;;;0.90;100.00
68634;BME280;55625;47.072;22.192;2023-02-23T04:29:42;99841.50;;;0.87;99.23
68634;BME280;55625;47.072;22.192;2023-02-23T04:32:13;99842.28;;;0.84;99.81
68634;BME280;55625;47.072;22.192;2023-02-23T04:34:40;99844.63;;;0.79;99.84
68634;BME280;55625;47.072;22.192;2023-02-23T04:37:06;99843.81;;;0.75;99.68
68634;BME280;55625;47.072;22.192;2023-02-23T04:39:32;99840.19;;;0.71;100.00
68634;BME280;55625;47.072;22.192;2023-02-23T04:41:58;99843.75;;;0.68;100.00
68634;BME280;55625;47.072;22.192;2023-02-23T04:44:24;99841.31;;;0.63;99.72
68634;BME280;55625;47.072;22.192;2023-02-23T04:46:50;99839.63;;;0.58;99.51
68634;BME280;55625;47.072;22.192;2023-02-23T04:49:16;99840.06;;;0.60;99.40
68634;BME280;55625;47.072;22.192;2023-02-23T04:51:41;99836.84;;;0.58;99.64
68634;BME280;55625;47.072;22.192;2023-02-23T04:54:08;99840.41;;;0.55;99.46
68634;BME280;55625;47.072;22.192;2023-02-23T04:56:34;99843.59;;;0.53;99.13
68634;BME280;55625;47.072;22.192;2023-02-23T04:59:00;99853.16;;;0.52;99.86
68634;BME280;55625;47.072;22.192;2023-02-23T05:01:26;99839.16;;;0.49;99.95
68634;BME280;55625;47.072;22.192;2023-02-23T05:03:53;99841.09;;;0.45;99.36
68634;BME280;55625;47.072;22.192;2023-02-23T05:06:20;99840.31;;;0.44;99.63
68634;BME280;55625;47.072;22.192;2023-02-23T05:08:46;99842.25;;;0.40;99.81
68634;BME280;55625;47.072;22.192;2023-02-23T05:11:12;99840.63;;;0.36;99.61
68634;BME280;55625;47.072;22.192;2023-02-23T05:13:38;99834.13;;;0.28;99.59
68634;BME280;55625;47.072;22.192;2023-02-23T05:16:05;99835.69;;;0.25;100.00
68634;BME280;55625;47.072;22.192;2023-02-23T05:18:31;99845.34;;;0.32;100.00
68634;BME280;55625;47.072;22.192;2023-02-23T05:21:05;99847.41;;;0.38;100.00
68634;BME280;55625;47.072;22.192;2023-02-23T05:23:34;99849.91;;;0.47;100.00
68634;BME280;55625;47.072;22.192;2023-02-23T05:26:06;99846.09;;;0.62;100.00
68634;BME280;55625;47.072;22.192;2023-02-23T05:28:35;99843.41;;;0.76;100.00
68634;BME280;55625;47.072;22.192;2023-02-23T05:31:01;99837.91;;;0.87;100.00
68634;BME280;55625;47.072;22.192;2023-02-23T05:33:35;99847.19;;;0.95;100.00
68634;BME280;55625;47.072;22.192;2023-02-23T05:36:12;99840.06;;;1.01;100.00
68634;BME280;55625;47.072;22.192;2023-02-23T05:38:40;99847.66;;;1.04;100.00
68634;BME280;55625;47.072;22.192;2023-02-23T05:41:08;99850.13;;;1.12;99.66
68634;BME280;55625;47.072;22.192;2023-02-23T05:43:34;99853.72;;;1.13;99.32
68634;BME280;55625;47.072;22.192;2023-02-23T05:46:04;99856.63;;;1.23;98.23
68634;BME280;55625;47.072;22.192;2023-02-23T05:48:30;99854.31;;;1.36;97.21
68634;BME280;55625;47.072;22.192;2023-02-23T05:51:04;99863.47;;;1.33;96.41
68634;BME280;55625;47.072;22.192;2023-02-23T05:53:30;99869.88;;;1.37;95.65
68634;BME280;55625;47.072;22.192;2023-02-23T05:55:56;99868.75;;;1.45;96.05
68634;BME280;55625;47.072;22.192;2023-02-23T05:58:22;99873.13;;;1.46;95.93
68634;BME280;55625;47.072;22.192;2023-02-23T06:00:48;99862.78;;;1.50;96.12
68634;BME280;55625;47.072;22.192;2023-02-23T06:03:14;99866.78;;;1.53;95.72
68634;BME280;55625;47.072;22.192;2023-02-23T06:05:41;99870.03;;;1.59;96.03
68634;BME280;55625;47.072;22.192;2023-02-23T06:08:08;99877.28;;;1.67;94.87
68634;BME280;55625;47.072;22.192;2023-02-23T06:10:33;99874.13;;;1.72;94.66
68634;BME280;55625;47.072;22.192;2023-02-23T06:12:59;99874.91;;;1.72;94.09
68634;BME280;55625;47.072;22.192;2023-02-23T06:15:25;99879.75;;;1.79;93.47
68634;BME280;55625;47.072;22.192;2023-02-23T06:17:51;99885.41;;;1.86;92.96
68634;BME280;55625;47.072;22.192;2023-02-23T06:20:18;99883.44;;;1.90;92.30
68634;BME280;55625;47.072;22.192;2023-02-23T06:22:44;99886.66;;;1.96;92.61
68634;BME280;55625;47.072;22.192;2023-02-23T06:25:09;99883.13;;;2.09;90.73
68634;BME280;55625;47.072;22.192;2023-02-23T06:27:38;99877.16;;;2.14;91.21
68634;BME280;55625;47.072;22.192;2023-02-23T06:30:05;99878.03;;;2.33;90.30
68634;BME280;55625;47.072;22.192;2023-02-23T06:32:31;99880.41;;;2.31;90.85
68634;BME280;55625;47.072;22.192;2023-02-23T06:34:57;99879.22;;;2.35;89.98
68634;BME280;55625;47.072;22.192;2023-02-23T06:37:24;99876.09;;;2.47;88.94
68634;BME280;55625;47.072;22.192;2023-02-23T06:39:50;99892.13;;;2.58;88.32
68634;BME280;55625;47.072;22.192;2023-02-23T06:42:16;99875.31;;;2.61;89.55
68634;BME280;55625;47.072;22.192;2023-02-23T06:44:42;99880.53;;;2.73;88.67
68634;BME280;55625;47.072;22.192;2023-02-23T06:47:08;99881.78;;;2.83;88.27
68634;BME280;55625;47.072;22.192;2023-02-23T06:49:34;99882.19;;;2.92;87.57
68634;BME280;55625;47.072;22.192;2023-02-23T06:52:01;99872.63;;;3.07;87.37
68634;BME280;55625;47.072;22.192;2023-02-23T06:54:27;99871.41;;;3.33;86.89
68634;BME280;55625;47.072;22.192;2023-02-23T06:56:53;99873.00;;;3.49;86.33
68634;BME280;55625;47.072;22.192;2023-02-23T06:59:20;99873.00;;;3.70;83.85
68634;BME280;55625;47.072;22.192;2023-02-23T07:01:46;99863.31;;;3.85;83.66
68634;BME280;55625;47.072;22.192;2023-02-23T07:04:12;99873.31;;;3.97;83.06
68634;BME280;55625;47.072;22.192;2023-02-23T07:06:37;99872.91;;;4.05;83.32
68634;BME280;55625;47.072;22.192;2023-02-23T07:09:04;99862.41;;;4.17;83.62
68634;BME280;55625;47.072;22.192;2023-02-23T07:11:30;99875.22;;;4.32;82.69
68634;BME280;55625;47.072;22.192;2023-02-23T07:14:00;99866.34;;;4.41;82.72
68634;BME280;55625;47.072;22.192;2023-02-23T07:16:29;99861.03;;;4.60;81.87
68634;BME280;55625;47.072;22.192;2023-02-23T07:18:55;99868.56;;;4.78;82.13
68634;BME280;55625;47.072;22.192;2023-02-23T07:21:21;99869.63;;;4.98;80.88
68634;BME280;55625;47.072;22.192;2023-02-23T07:23:47;99866.66;;;5.23;79.67
68634;BME280;55625;47.072;22.192;2023-02-23T07:26:15;99863.28;;;5.39;78.03
68634;BME280;55625;47.072;22.192;2023-02-23T07:28:42;99866.38;;;5.55;76.45
68634;BME280;55625;47.072;22.192;2023-02-23T07:31:08;99871.78;;;5.76;75.91
68634;BME280;55625;47.072;22.192;2023-02-23T07:33:34;99870.91;;;5.86;75.91
68634;BME280;55625;47.072;22.192;2023-02-23T07:36:01;99874.84;;;5.96;75.74
68634;BME280;55625;47.072;22.192;2023-02-23T07:38:27;99871.09;;;6.06;73.12
68634;BME280;55625;47.072;22.192;2023-02-23T07:40:53;99871.84;;;6.14;74.13
68634;BME280;55625;47.072;22.192;2023-02-23T07:43:19;99867.34;;;6.20;73.41
68634;BME280;55625;47.072;22.192;2023-02-23T07:45:47;99866.81;;;6.29;73.82
68634;BME280;55625;47.072;22.192;2023-02-23T07:48:14;99862.19;;;6.45;71.77
68634;BME280;55625;47.072;22.192;2023-02-23T07:50:41;99875.66;;;6.61;73.72
68634;BME280;55625;47.072;22.192;2023-02-23T07:53:07;99865.47;;;6.71;72.51
68634;BME280;55625;47.072;22.192;2023-02-23T07:55:33;99862.63;;;6.71;73.01
68634;BME280;55625;47.072;22.192;2023-02-23T07:57:58;99863.63;;;6.88;70.39
68634;BME280;55625;47.072;22.192;2023-02-23T08:00:24;99867.97;;;6.92;70.41
68634;BME280;55625;47.072;22.192;2023-02-23T08:02:52;99866.22;;;7.02;69.11
68634;BME280;55625;47.072;22.192;2023-02-23T08:05:18;99858.78;;;7.15;70.26
68634;BME280;55625;47.072;22.192;2023-02-23T08:07:44;99864.97;;;7.30;68.83
68634;BME280;55625;47.072;22.192;2023-02-23T08:10:12;99868.28;;;7.25;68.73
68634;BME280;55625;47.072;22.192;2023-02-23T08:12:38;99867.75;;;7.33;68.60
68634;BME280;55625;47.072;22.192;2023-02-23T08:15:05;99866.91;;;7.36;67.22
68634;BME280;55625;47.072;22.192;2023-02-23T08:17:35;99864.34;;;7.45;67.53
68634;BME280;55625;47.072;22.192;2023-02-23T08:20:03;99869.53;;;7.47;65.50
68634;BME280;55625;47.072;22.192;2023-02-23T08:22:29;99867.69;;;7.60;66.55
68634;BME280;55625;47.072;22.192;2023-02-23T08:24:54;99870.16;;;7.82;64.23
68634;BME280;55625;47.072;22.192;2023-02-23T08:27:20;99874.81;;;7.92;64.81
68634;BME280;55625;47.072;22.192;2023-02-23T08:29:46;99870.00;;;7.89;64.90
68634;BME280;55625;47.072;22.192;2023-02-23T08:32:12;99869.94;;;7.92;64.35
68634;BME280;55625;47.072;22.192;2023-02-23T08:34:40;99870.28;;;7.98;63.83
68634;BME280;55625;47.072;22.192;2023-02-23T08:37:07;99873.16;;;8.14;64.06
68634;BME280;55625;47.072;22.192;2023-02-23T08:39:34;99872.03;;;8.31;63.07
68634;BME280;55625;47.072;22.192;2023-02-23T08:42:01;99870.31;;;8.37;62.28
68634;BME280;55625;47.072;22.192;2023-02-23T08:44:27;99865.59;;;8.51;61.77
68634;BME280;55625;47.072;22.192;2023-02-23T08:46:53;99869.09;;;8.58;60.72
68634;BME280;55625;47.072;22.192;2023-02-23T08:49:21;99865.56;;;8.70;61.67
68634;BME280;55625;47.072;22.192;2023-02-23T08:51:47;99872.22;;;8.80;60.97
68634;BME280;55625;47.072;22.192;2023-02-23T08:54:13;99869.97;;;8.91;59.49
68634;BME280;55625;47.072;22.192;2023-02-23T08:56:41;99874.22;;;8.99;59.05
68634;BME280;55625;47.072;22.192;2023-02-23T08:59:08;99867.53;;;9.10;60.13
68634;BME280;55625;47.072;22.192;2023-02-23T09:01:34;99869.06;;;9.30;58.77
68634;BME280;55625;47.072;22.192;2023-02-23T09:04:04;99868.97;;;9.34;56.06
68634;BME280;55625;47.072;22.192;2023-02-23T09:06:32;99877.63;;;9.43;55.55
68634;BME280;55625;47.072;22.192;2023-02-23T09:09:00;99871.88;;;9.47;55.38
68634;BME280;55625;47.072;22.192;2023-02-23T09:11:26;99864.56;;;9.49;56.29
68634;BME280;55625;47.072;22.192;2023-02-23T09:13:52;99867.19;;;9.56;55.74
68634;BME280;55625;47.072;22.192;2023-02-23T09:16:18;99872.06;;;9.72;55.97
68634;BME280;55625;47.072;22.192;2023-02-23T09:18:44;99866.72;;;9.90;57.42
68634;BME280;55625;47.072;22.192;2023-02-23T09:21:16;99866.13;;;9.83;56.46
68634;BME280;55625;47.072;22.192;2023-02-23T09:23:50;99867.97;;;9.89;57.47
68634;BME280;55625;47.072;22.192;2023-02-23T09:26:18;99866.78;;;10.03;57.50
68634;BME280;55625;47.072;22.192;2023-02-23T09:28:45;99867.47;;;10.23;55.96
68634;BME280;55625;47.072;22.192;2023-02-23T09:31:17;99863.34;;;9.95;55.74
68634;BME280;55625;47.072;22.192;2023-02-23T09:33:44;99872.34;;;10.23;56.71
68634;BME280;55625;47.072;22.192;2023-02-23T09:36:15;99867.44;;;10.52;58.50
68634;BME280;55625;47.072;22.192;2023-02-23T09:38:47;99870.69;;;10.80;58.38
68634;BME280;55625;47.072;22.192;2023-02-23T09:44:25;99863.22;;;11.24;55.99
68634;BME280;55625;47.072;22.192;2023-02-23T09:50:20;99864.09;;;11.72;55.91
68634;BME280;55625;47.072;22.192;2023-02-23T09:52:53;99862.63;;;11.80;54.38
68634;BME280;55625;47.072;22.192;2023-02-23T09:55:22;99861.44;;;11.90;54.54
68634;BME280;55625;47.072;22.192;2023-02-23T09:57:48;99868.50;;;11.98;53.36
68634;BME280;55625;47.072;22.192;2023-02-23T10:00:23;99865.47;;;12.15;52.17
68634;BME280;55625;47.072;22.192;2023-02-23T10:03:16;99858.94;;;12.27;52.74
68634;BME280;55625;47.072;22.192;2023-02-23T10:05:58;99856.63;;;12.56;50.70
68634;BME280;55625;47.072;22.192;2023-02-23T10:11:36;99859.59;;;13.05;50.98
68634;BME280;55625;47.072;22.192;2023-02-23T10:17:44;99843.13;;;13.10;47.79
68634;BME280;55625;47.072;22.192;2023-02-23T10:20:44;99849.25;;;13.21;48.71
68634;BME280;55625;47.072;22.192;2023-02-23T10:23:18;99848.47;;;12.98;48.27
68634;BME280;55625;47.072;22.192;2023-02-23T10:25:48;99846.88;;;13.19;49.03
68634;BME280;55625;47.072;22.192;2023-02-23T10:28:19;99845.97;;;13.00;47.46
68634;BME280;55625;47.072;22.192;2023-02-23T10:30:48;99841.94;;;12.89;49.32
68634;BME280;55625;47.072;22.192;2023-02-23T10:33:35;99836.00;;;13.05;48.67
68634;BME280;55625;47.072;22.192;2023-02-23T10:39:00;99834.25;;;13.39;49.17
68634;BME280;55625;47.072;22.192;2023-02-23T10:41:27;99832.97;;;13.30;48.17
68634;BME280;55625;47.072;22.192;2023-02-23T10:43:53;99827.13;;;13.43;49.07
68634;BME280;55625;47.072;22.192;2023-02-23T10:46:22;99817.84;;;13.52;48.80
68634;BME280;55625;47.072;22.192;2023-02-23T10:48:51;99827.50;;;13.63;49.00
68634;BME280;55625;47.072;22.192;2023-02-23T10:51:26;99818.50;;;13.74;49.85
68634;BME280;55625;47.072;22.192;2023-02-23T10:53:53;99816.63;;;13.80;49.41
68634;BME280;55625;47.072;22.192;2023-02-23T10:56:20;99816.63;;;13.89;49.05
68634;BME280;55625;47.072;22.192;2023-02-23T10:58:57;99808.53;;;14.06;46.93
68634;BME280;55625;47.072;22.192;2023-02-23T11:01:41;99805.53;;;14.10;48.53
68634;BME280;55625;47.072;22.192;2023-02-23T11:04:29;99800.94;;;14.21;48.18
68634;BME280;55625;47.072;22.192;2023-02-23T11:07:27;99802.50;;;14.22;46.50
68634;BME280;55625;47.072;22.192;2023-02-23T11:09:56;99796.97;;;14.01;46.93
68634;BME280;55625;47.072;22.192;2023-02-23T11:12:39;99795.88;;;13.89;47.07
68634;BME280;55625;47.072;22.192;2023-02-23T11:18:00;99800.75;;;14.07;47.66
68634;BME280;55625;47.072;22.192;2023-02-23T11:20:38;99800.16;;;13.84;47.73
68634;BME280;55625;47.072;22.192;2023-02-23T11:23:24;99800.13;;;14.03;48.46
68634;BME280;55625;47.072;22.192;2023-02-23T11:26:47;99787.94;;;14.11;46.60
68634;BME280;55625;47.072;22.192;2023-02-23T11:28:55;99793.78;;;14.26;45.86
68634;BME280;55625;47.072;22.192;2023-02-23T11:31:32;99789.50;;;14.21;47.25
68634;BME280;55625;47.072;22.192;2023-02-23T11:34:04;99786.94;;;14.33;46.97
68634;BME280;55625;47.072;22.192;2023-02-23T11:36:35;99788.06;;;14.35;46.14
68634;BME280;55625;47.072;22.192;2023-02-23T11:39:17;99791.22;;;14.37;47.49
68634;BME280;55625;47.072;22.192;2023-02-23T11:41:43;99786.31;;;14.28;47.19
68634;BME280;55625;47.072;22.192;2023-02-23T11:44:23;99783.94;;;14.36;47.20
68634;BME280;55625;47.072;22.192;2023-02-23T11:46:49;99787.44;;;14.31;47.15
68634;BME280;55625;47.072;22.192;2023-02-23T11:49:25;99786.94;;;14.33;46.59
68634;BME280;55625;47.072;22.192;2023-02-23T11:51:53;99791.56;;;14.30;46.59
68634;BME280;55625;47.072;22.192;2023-02-23T11:54:31;99787.91;;;14.29;46.87
68634;BME280;55625;47.072;22.192;2023-02-23T11:56:58;99784.25;;;14.38;46.73
68634;BME280;55625;47.072;22.192;2023-02-23T11:59:38;99780.16;;;14.21;45.51
68634;BME280;55625;47.072;22.192;2023-02-23T12:02:23;99771.78;;;13.81;44.93
68634;BME280;55625;47.072;22.192;2023-02-23T12:05:23;99784.59;;;13.67;44.08
68634;BME280;55625;47.072;22.192;2023-02-23T12:16:04;99778.34;;;13.41;45.52
68634;BME280;55625;47.072;22.192;2023-02-23T12:21:34;99778.25;;;12.73;46.75
68634;BME280;55625;47.072;22.192;2023-02-23T12:24:24;99778.28;;;12.83;47.02
68634;BME280;55625;47.072;22.192;2023-02-23T12:27:41;99774.41;;;12.98;46.57
68634;BME280;55625;47.072;22.192;2023-02-23T12:34:13;99769.41;;;12.50;48.94
68634;BME280;55625;47.072;22.192;2023-02-23T12:36:27;99773.84;;;12.51;48.96
68634;BME280;55625;47.072;22.192;2023-02-23T12:42:03;99775.63;;;12.26;47.92
68634;BME280;55625;47.072;22.192;2023-02-23T12:44:48;99765.41;;;12.38;48.56
68634;BME280;55625;47.072;22.192;2023-02-23T12:50:28;99765.50;;;12.25;49.25
68634;BME280;55625;47.072;22.192;2023-02-23T12:53:26;99766.00;;;11.89;47.41
68634;BME280;55625;47.072;22.192;2023-02-23T12:59:34;99763.56;;;12.22;48.27
68634;BME280;55625;47.072;22.192;2023-02-23T13:05:29;99755.34;;;12.24;48.33
68634;BME280;55625;47.072;22.192;2023-02-23T13:08:28;99758.88;;;12.28;47.44
68634;BME280;55625;47.072;22.192;2023-02-23T13:14:34;99757.72;;;11.47;49.97
68634;BME280;55625;47.072;22.192;2023-02-23T13:19:56;99762.41;;;11.41;50.78
68634;BME280;55625;47.072;22.192;2023-02-23T13:28:51;99761.91;;;11.90;49.45
68634;BME280;55625;47.072;22.192;2023-02-23T13:31:26;99758.88;;;12.06;49.33
68634;BME280;55625;47.072;22.192;2023-02-23T13:33:56;99759.84;;;11.91;48.17
68634;BME280;55625;47.072;22.192;2023-02-23T13:36:23;99758.72;;;11.88;48.62
68634;BME280;55625;47.072;22.192;2023-02-23T13:42:42;99758.34;;;11.64;49.05
68634;BME280;55625;47.072;22.192;2023-02-23T13:48:46;99752.84;;;11.82;49.76
68634;BME280;55625;47.072;22.192;2023-02-23T13:51:42;99747.97;;;11.70;50.27
68634;BME280;55625;47.072;22.192;2023-02-23T13:56:52;99747.19;;;11.70;50.07
68634;BME280;55625;47.072;22.192;2023-02-23T13:59:26;99748.06;;;11.45;50.26
68634;BME280;55625;47.072;22.192;2023-02-23T14:01:54;99757.78;;;11.57;49.60
68634;BME280;55625;47.072;22.192;2023-02-23T14:04:34;99741.75;;;11.63;49.12
68634;BME280;55625;47.072;22.192;2023-02-23T14:07:15;99750.50;;;11.34;49.67
68634;BME280;55625;47.072;22.192;2023-02-23T14:10:08;99744.56;;;11.28;51.74
68634;BME280;55625;47.072;22.192;2023-02-23T14:12:40;99743.56;;;11.35;51.82
68634;BME280;55625;47.072;22.192;2023-02-23T14:18:04;99742.22;;;11.14;52.73
68634;BME280;55625;47.072;22.192;2023-02-23T14:24:12;99746.09;;;11.07;54.18
68634;BME280;55625;47.072;22.192;2023-02-23T14:26:45;99745.53;;;11.00;55.23
68634;BME280;55625;47.072;22.192;2023-02-23T14:32:44;99743.47;;;11.00;55.38
68634;BME280;55625;47.072;22.192;2023-02-23T14:35:47;99750.19;;;10.94;55.37
68634;BME280;55625;47.072;22.192;2023-02-23T14:38:29;99746.38;;;10.75;55.61
68634;BME280;55625;47.072;22.192;2023-02-23T14:40:59;99751.09;;;10.65;56.41
68634;BME280;55625;47.072;22.192;2023-02-23T14:46:26;99743.06;;;10.51;57.85
68634;BME280;55625;47.072;22.192;2023-02-23T14:49:09;99741.09;;;10.35;59.03
68634;BME280;55625;47.072;22.192;2023-02-23T14:51:46;99743.94;;;10.35;59.95
68634;BME280;55625;47.072;22.192;2023-02-23T14:54:34;99739.84;;;10.23;59.76
68634;BME280;55625;47.072;22.192;2023-02-23T14:57:04;99744.66;;;10.10;60.20
68634;BME280;55625;47.072;22.192;2023-02-23T14:59:41;99741.47;;;10.08;60.53
68634;BME280;55625;47.072;22.192;2023-02-23T15:02:20;99739.00;;;10.10;61.60
68634;BME280;55625;47.072;22.192;2023-02-23T15:04:49;99739.63;;;10.02;63.31
68634;BME280;55625;47.072;22.192;2023-02-23T15:07:37;99740.09;;;10.00;62.19
68634;BME280;55625;47.072;22.192;2023-02-23T15:10:39;99729.97;;;9.86;62.03
68634;BME280;55625;47.072;22.192;2023-02-23T15:13:37;99743.53;;;9.79;62.78
68634;BME280;55625;47.072;22.192;2023-02-23T15:16:08;99748.84;;;9.77;63.44
68634;BME280;55625;47.072;22.192;2023-02-23T15:18:41;99744.84;;;9.61;64.26
68634;BME280;55625;47.072;22.192;2023-02-23T15:21:20;99739.81;;;9.53;64.79
68634;BME280;55625;47.072;22.192;2023-02-23T15:24:12;99742.09;;;9.58;64.38
68634;BME280;55625;47.072;22.192;2023-02-23T15:26:40;99748.22;;;9.56;64.74
68634;BME280;55625;47.072;22.192;2023-02-23T15:29:12;99738.75;;;9.47;64.88
68634;BME280;55625;47.072;22.192;2023-02-23T15:31:39;99733.28;;;9.40;65.26